Time;durP1;ratioP1;P1;durP2;ratioP2;P2;SDS_P1;SDS_P2;PMS_P1;PMS_P2;Temp;Humidity;BMP_temperature;BMP_pressure;BME280_temperature;BME280_humidity;BME280_pressure;Samples;Min_cycle;Max_cycle;Signal;HPM_P1;HPM_P2
2022/04/20 00:01:42;;;;;;;;;;;;;;;17.38;30.73;95345.84;10362478;28;1486;-76
2022/04/20 00:06:49;;;;;;;;;;;;;;;17.37;30.69;95336.41;10365337;28;1555;-76
2022/04/20 00:11:50;;;;;;;;;;;;;;;17.36;30.75;95337.47;10351382;28;1586;-76
2022/04/20 00:16:54;;;;;;;;;;;;;;;17.38;30.67;95338.00;10350955;28;1963;-76
2022/04/20 00:21:57;;;;;;;;;;;;;;;17.36;30.78;95327.00;10331562;28;1560;-75
2022/04/20 00:27:00;;;;;;;;;;;;;;;17.37;30.55;95331.16;10338202;28;1681;-77
2022/04/20 00:32:01;;;;;;;;;;;;;;;17.36;30.62;95324.38;10331007;28;2105;-75
2022/04/20 00:37:01;;;;;;;;;;;;;;;17.36;30.56;95327.00;10372025;28;1903;-74
2022/04/20 00:42:02;;;;;;;;;;;;;;;17.36;30.59;95321.75;10356227;28;1920;-76
2022/04/20 00:47:03;;;;;;;;;;;;;;;17.35;30.54;95325.41;10371829;28;1905;-76
2022/04/20 00:52:12;;;;;;;;;;;;;;;17.35;30.63;95320.16;10367021;28;2567;-75
2022/04/20 00:57:14;;;;;;;;;;;;;;;17.35;30.55;95320.16;10369503;28;2035;-76
2022/04/20 01:02:21;;;;;;;;;;;;;;;17.36;30.64;95311.28;10337165;28;1849;-74
2022/04/20 01:07:22;;;;;;;;;;;;;;;17.37;30.37;95314.69;10338340;28;2031;-75
2022/04/20 01:12:23;;;;;;;;;;;;;;;17.35;30.56;95303.69;10353239;28;1944;-77
2022/04/20 01:17:24;;;;;;;;;;;;;;;17.37;30.55;95304.97;10352507;28;1905;-75
2022/04/20 01:22:24;;;;;;;;;;;;;;;17.35;30.55;95304.44;10352121;28;1908;-75
2022/04/20 01:27:28;;;;;;;;;;;;;;;17.35;30.45;95303.69;10371652;28;1911;-76
2022/04/20 01:32:31;;;;;;;;;;;;;;;17.35;30.42;95301.84;10348138;28;1945;-75
2022/04/20 01:37:39;;;;;;;;;;;;;;;17.36;30.41;95300.00;10355842;28;1833;-76
2022/04/20 01:42:42;;;;;;;;;;;;;;;17.33;30.55;95296.06;10353141;28;1975;-76
2022/04/20 01:47:43;;;;;;;;;;;;;;;17.34;30.45;95308.13;10360805;23;3661;-54
2022/04/20 01:52:47;;;;;;;;;;;;;;;17.34;30.35;95297.66;10363790;28;1938;-58
2022/04/20 01:57:47;;;;;;;;;;;;;;;17.34;30.33;95297.66;10325205;28;1963;-55
2022/04/20 02:08:19;;;;;;;;;;;;;;;17.33;30.40;95293.44;10360562;28;1809;-54
2022/04/20 02:13:20;;;;;;;;;;;;;;;17.35;30.27;95299.22;10358799;28;1968;-51
2022/04/20 02:18:20;;;;;;;;;;;;;;;17.35;30.33;95293.97;10353842;28;1725;-53
2022/04/20 02:23:20;;;;;;;;;;;;;;;17.35;30.40;95301.06;10353917;28;1786;-54
2022/04/20 02:28:21;;;;;;;;;;;;;;;17.34;30.23;95292.41;10354275;28;1762;-49
2022/04/20 02:33:21;;;;;;;;;;;;;;;17.34;30.18;95289.81;10354037;28;1898;-48
2022/04/20 02:38:21;;;;;;;;;;;;;;;17.33;30.19;95296.06;10354260;28;1800;-52
2022/04/20 02:43:23;;;;;;;;;;;;;;;17.34;30.20;95294.25;10363198;28;1525;-48
2022/04/20 02:48:23;;;;;;;;;;;;;;;17.36;30.19;95292.16;10347342;28;1455;-47
2022/04/20 02:53:24;;;;;;;;;;;;;;;17.35;30.30;95293.22;10366100;28;1968;-48
2022/04/20 02:58:24;;;;;;;;;;;;;;;17.35;30.22;95287.97;10356522;28;1474;-50
2022/04/20 03:03:24;;;;;;;;;;;;;;;17.34;30.19;95287.19;10356720;28;1761;-54
2022/04/20 03:08:25;;;;;;;;;;;;;;;17.35;30.18;95288.72;10364448;28;1465;-48
2022/04/20 03:13:26;;;;;;;;;;;;;;;17.36;30.07;95284.28;10350323;28;1914;-49
2022/04/20 03:18:31;;;;;;;;;;;;;;;17.37;30.08;95289.25;10348430;28;1546;-50
2022/04/20 03:23:32;;;;;;;;;;;;;;;17.37;30.06;95291.88;10347486;28;1477;-52
2022/04/20 03:28:32;;;;;;;;;;;;;;;17.40;30.09;95291.38;10346031;28;1457;-53
2022/04/20 03:33:33;;;;;;;;;;;;;;;17.37;30.09;95291.88;10357938;28;1973;-52
2022/04/20 03:38:33;;;;;;;;;;;;;;;17.39;30.00;95287.19;10361172;28;1512;-54
2022/04/20 03:43:34;;;;;;;;;;;;;;;17.39;29.95;95289.00;10344581;28;2162;-53
2022/04/20 03:48:34;;;;;;;;;;;;;;;17.43;29.96;95290.84;10347797;28;1490;-54
2022/04/20 03:53:35;;;;;;;;;;;;;;;17.41;29.83;95294.78;10348597;28;1922;-50
2022/04/20 03:58:36;;;;;;;;;;;;;;;17.44;29.82;95295.03;10348234;28;1429;-53
2022/04/20 04:03:37;;;;;;;;;;;;;;;17.45;29.71;95293.19;10352580;28;1588;-49
2022/04/20 04:08:37;;;;;;;;;;;;;;;17.45;29.79;95298.44;10358401;28;1536;-50
2022/04/20 04:13:37;;;;;;;;;;;;;;;17.46;29.69;95295.53;10364315;28;1914;-49
2022/04/20 04:18:38;;;;;;;;;;;;;;;17.44;29.81;95302.88;10353083;28;1531;-49
2022/04/20 04:23:39;;;;;;;;;;;;;;;17.44;29.75;95302.09;10352739;28;1482;-52
2022/04/20 04:28:43;;;;;;;;;;;;;;;17.44;29.79;95299.47;10357277;28;1661;-54
2022/04/20 04:33:43;;;;;;;;;;;;;;;17.45;29.67;95314.94;10350427;28;1985;-54
2022/04/20 04:38:43;;;;;;;;;;;;;;;17.44;29.79;95307.34;10353434;28;1565;-53
2022/04/20 04:43:44;;;;;;;;;;;;;;;17.44;29.61;95302.88;10356235;28;1452;-49
2022/04/20 04:48:48;;;;;;;;;;;;;;;17.44;29.58;95302.88;10352695;28;1509;-52
2022/04/20 04:53:48;;;;;;;;;;;;;;;17.44;29.62;95302.09;10367154;28;1942;-52
2022/04/20 04:58:49;;;;;;;;;;;;;;;17.44;29.64;95309.94;10352714;28;1593;-51
2022/04/20 05:03:49;;;;;;;;;;;;;;;17.42;29.55;95310.22;10352422;28;1453;-48
2022/04/20 05:08:50;;;;;;;;;;;;;;;17.41;29.72;95306.03;10358829;28;1841;-53
2022/04/20 05:13:51;;;;;;;;;;;;;;;17.42;29.54;95307.59;10352351;28;1918;-51
2022/04/20 05:18:51;;;;;;;;;;;;;;;17.42;29.68;95306.81;10350075;28;1552;-49
2022/04/20 05:23:54;;;;;;;;;;;;;;;17.43;29.54;95305.78;10353379;28;1490;-53
2022/04/20 05:28:55;;;;;;;;;;;;;;;17.43;29.62;95306.56;10350550;28;1791;-48
2022/04/20 05:33:56;;;;;;;;;;;;;;;17.42;29.71;95312.06;10353747;28;1918;-54
2022/04/20 05:44:17;;;;;;;;;;;;;;;17.39;29.56;95313.38;10364492;28;1530;-51
2022/04/20 05:49:18;;;;;;;;;;;;;;;17.43;29.57;95316.25;10362841;28;1446;-49
2022/04/20 05:54:18;;;;;;;;;;;;;;;17.42;29.61;95318.09;10362717;28;1907;-51
2022/04/20 05:59:18;;;;;;;;;;;;;;;17.38;29.69;95319.66;10348164;28;1485;-50
2022/04/20 06:04:19;;;;;;;;;;;;;;;17.41;29.58;95328.84;10354362;28;1505;-52
2022/04/20 06:09:19;;;;;;;;;;;;;;;17.41;29.65;95326.22;10354689;28;1545;-49
2022/04/20 06:14:20;;;;;;;;;;;;;;;17.41;29.69;95329.63;10351904;28;1977;-50
2022/04/20 06:19:21;;;;;;;;;;;;;;;17.41;29.62;95326.22;10352560;28;1544;-50
2022/04/20 06:24:22;;;;;;;;;;;;;;;17.39;29.77;95321.25;10352767;28;1499;-51
2022/04/20 06:29:22;;;;;;;;;;;;;;;17.40;29.77;95309.69;10351359;28;1459;-50
2022/04/20 06:34:22;;;;;;;;;;;;;;;17.38;29.71;95309.19;10349008;28;1910;-48
2022/04/20 06:39:23;;;;;;;;;;;;;;;17.40;29.70;95304.47;10349663;28;1493;-50
2022/04/20 06:44:24;;;;;;;;;;;;;;;17.37;29.79;95302.34;10366718;28;1480;-50
2022/04/20 06:49:24;;;;;;;;;;;;;;;17.40;29.72;95308.91;10368135;28;1535;-55
2022/04/20 06:59:43;;;;;;;;;;;;;;;17.40;29.69;95308.91;10348638;28;1535;-53
2022/04/20 07:04:45;;;;;;;;;;;;;;;17.37;29.80;95302.34;10357377;28;1482;-53
2022/04/20 07:09:45;;;;;;;;;;;;;;;17.41;29.70;95303.44;10356762;28;1608;-52
2022/04/20 07:14:46;;;;;;;;;;;;;;;17.37;29.77;95312.06;10362467;28;1926;-48
2022/04/20 07:19:46;;;;;;;;;;;;;;;17.38;29.72;95297.91;10350412;28;1595;-51
2022/04/20 07:24:47;;;;;;;;;;;;;;;17.36;29.81;95300.78;10362546;28;1494;-50
2022/04/20 07:29:47;;;;;;;;;;;;;;;17.38;29.79;95303.16;10335843;28;1510;-52
2022/04/20 07:34:47;;;;;;;;;;;;;;;17.36;29.81;95295.56;10342836;28;1984;-52
2022/04/20 07:39:47;;;;;;;;;;;;;;;17.40;29.82;95301.84;10364918;28;1946;-49
2022/04/20 07:44:48;;;;;;;;;;;;;;;17.38;29.83;95297.91;10358682;28;1488;-51
2022/04/20 07:55:11;;;;;;;;;;;;;;;17.37;29.81;95299.72;10366915;28;1918;-51
2022/04/20 08:00:12;;;;;;;;;;;;;;;17.36;29.81;95305.25;10347639;28;1470;-47
2022/04/20 08:05:14;;;;;;;;;;;;;;;17.37;29.85;95301.59;10362563;28;1475;-51
2022/04/20 08:10:14;;;;;;;;;;;;;;;17.34;29.92;95297.66;10364764;28;1545;-52
2022/04/20 08:15:15;;;;;;;;;;;;;;;17.33;29.94;95303.94;10372936;23;1965;-56
2022/04/20 08:20:15;;;;;;;;;;;;;;;17.38;29.86;95308.38;10352797;28;1575;-57
2022/04/20 08:25:16;;;;;;;;;;;;;;;17.34;30.01;95310.75;10349498;28;1541;-56
2022/04/20 08:30:16;;;;;;;;;;;;;;;17.32;29.95;95305.00;10340871;28;1365;-55
2022/04/20 08:35:19;;;;;;;;;;;;;;;17.33;30.03;95309.16;10342892;28;1976;-58
2022/04/20 08:40:20;;;;;;;;;;;;;;;17.31;30.03;95302.66;10345622;28;1675;-55
2022/04/20 08:45:20;;;;;;;;;;;;;;;17.32;30.14;95299.75;10341627;28;1618;-59
2022/04/20 08:50:21;;;;;;;;;;;;;;;17.33;30.03;95301.31;10354000;28;1450;-56
2022/04/20 08:55:21;;;;;;;;;;;;;;;17.32;30.11;95294.50;10366368;28;1988;-58
2022/04/20 09:00:24;;;;;;;;;;;;;;;17.29;30.19;95289.78;10350582;28;1763;-56
2022/04/20 09:05:27;;;;;;;;;;;;;;;17.28;30.20;95298.72;10353484;28;1451;-57
2022/04/20 09:10:27;;;;;;;;;;;;;;;17.29;30.28;95295.03;10352423;28;1536;-57
2022/04/20 09:15:28;;;;;;;;;;;;;;;17.28;30.12;95283.00;10351866;28;1910;-57
2022/04/20 09:20:31;;;;;;;;;;;;;;;17.28;30.26;95285.63;10353610;28;2171;-57
2022/04/20 09:25:33;;;;;;;;;;;;;;;17.27;30.38;95285.88;10353769;28;1446;-56
2022/04/20 09:30:33;;;;;;;;;;;;;;;17.28;30.33;95277.75;10350552;28;1522;-56
2022/04/20 09:35:41;;;;;;;;;;;;;;;17.28;30.29;95279.59;10349710;28;1992;-58
2022/04/20 09:40:42;;;;;;;;;;;;;;;17.30;30.12;95275.66;10347923;28;1450;-57
2022/04/20 09:45:43;;;;;;;;;;;;;;;17.29;30.22;95279.31;10354556;28;1485;-55
2022/04/20 09:50:43;;;;;;;;;;;;;;;17.30;30.24;95264.38;10352499;28;1562;-57
2022/04/20 09:55:43;;;;;;;;;;;;;;;17.30;30.28;95261.75;10347004;28;1910;-57
2022/04/20 10:00:48;;;;;;;;;;;;;;;17.31;30.14;95256.25;10348373;28;2311;-59
2022/04/20 10:05:48;;;;;;;;;;;;;;;17.29;30.38;95252.34;10352845;28;1506;-57
2022/04/20 10:10:49;;;;;;;;;;;;;;;17.30;30.41;95259.94;10348737;28;1546;-59
2022/04/20 10:16:05;;;;;;;;;;;;;;;17.28;30.26;95243.72;10350113;28;1907;-56
2022/04/20 10:21:11;;;;;;;;;;;;;;;17.29;30.44;95258.34;10348671;28;1435;-58
2022/04/20 10:26:12;;;;;;;;;;;;;;;17.30;30.62;95248.66;10353932;28;1494;-58
2022/04/20 10:31:12;;;;;;;;;;;;;;;17.31;30.52;95242.41;10362351;28;1677;-58
2022/04/20 10:36:16;;;;;;;;;;;;;;;17.30;30.47;95227.72;10347266;28;1979;-57
2022/04/20 10:41:18;;;;;;;;;;;;;;;17.32;30.48;95221.16;10349040;28;1525;-59
2022/04/20 10:46:19;;;;;;;;;;;;;;;17.32;30.53;95215.94;10350583;28;1448;-58
2022/04/20 10:51:20;;;;;;;;;;;;;;;17.32;30.43;95221.16;10360643;28;1492;-58
2022/04/20 10:56:20;;;;;;;;;;;;;;;17.33;30.54;95219.34;10346020;28;1944;-57
2022/04/20 11:01:21;;;;;;;;;;;;;;;17.36;30.44;95218.78;10345179;28;1517;-57
2022/04/20 11:06:25;;;;;;;;;;;;;;;17.36;30.45;95198.63;10350892;28;1545;-57
2022/04/20 11:22:23;;;;;;;;;;;;;;;17.38;30.40;95182.63;10350568;28;1573;-57
2022/04/20 11:27:32;;;;;;;;;;;;;;;17.42;30.50;95189.69;10344818;28;1471;-54
2022/04/20 11:32:32;;;;;;;;;;;;;;;17.42;30.48;95181.84;10343648;28;1487;-58
2022/04/20 11:37:33;;;;;;;;;;;;;;;17.44;30.52;95179.75;10349526;28;1966;-57
2022/04/20 11:42:35;;;;;;;;;;;;;;;17.44;30.65;95166.63;10362527;28;1571;-58
2022/04/20 11:47:42;;;;;;;;;;;;;;;17.47;30.56;95160.88;10342228;28;1624;-54
2022/04/20 11:52:43;;;;;;;;;;;;;;;17.45;30.60;95159.56;10347343;28;1506;-55
2022/04/20 11:57:44;;;;;;;;;;;;;;;17.47;30.62;95167.94;10343400;28;1959;-58
2022/04/20 12:02:45;;;;;;;;;;;;;;;17.48;30.59;95156.41;10343141;28;1439;-57
2022/04/20 12:07:46;;;;;;;;;;;;;;;17.47;30.65;95168.75;10344681;28;1536;-58
2022/04/20 12:12:48;;;;;;;;;;;;;;;17.47;30.61;95157.47;10359437;28;1914;-54
2022/04/20 12:17:48;;;;;;;;;;;;;;;17.49;30.64;95150.13;10360692;28;1514;-56
2022/04/20 12:23:03;;;;;;;;;;;;;;;17.49;30.65;95143.09;10371324;28;1458;-58
2022/04/20 12:28:35;;;;;;;;;;;;;;;17.49;30.58;95150.13;10353143;28;1451;-58
2022/04/20 12:33:26;;;;;;;;;;;;;;;17.50;30.58;95144.63;10347227;28;1971;-55
2022/04/20 12:38:26;;;;;;;;;;;;;;;17.49;30.64;95135.22;10367693;28;1501;-54
2022/04/20 12:43:32;;;;;;;;;;;;;;;17.51;30.65;95132.31;10351215;28;1550;-57
2022/04/20 12:48:40;;;;;;;;;;;;;;;17.52;30.66;95126.00;10350589;28;1462;-56
2022/04/20 12:53:41;;;;;;;;;;;;;;;17.51;30.68;95127.88;10352131;28;1906;-55
2022/04/20 13:04:06;;;;;;;;;;;;;;;17.51;30.75;95114.78;10359602;28;1454;-58
2022/04/20 13:09:06;;;;;;;;;;;;;;;17.51;30.57;95109.53;10353177;28;1438;-56
2022/04/20 13:14:07;;;;;;;;;;;;;;;17.54;30.60;95105.56;10352848;28;1906;-56
2022/04/20 13:19:07;;;;;;;;;;;;;;;17.52;30.58;95100.59;10349728;28;1497;-55
2022/04/20 13:24:08;;;;;;;;;;;;;;;17.52;30.63;95099.81;10365783;28;1559;-56
2022/04/20 13:29:09;;;;;;;;;;;;;;;17.52;30.64;95102.44;10348684;28;1436;-58
2022/04/20 13:34:09;;;;;;;;;;;;;;;17.51;30.57;95101.66;10349756;28;1910;-56
2022/04/20 13:39:09;;;;;;;;;;;;;;;17.49;30.68;95090.69;10346586;28;1552;-56
2022/04/20 13:44:10;;;;;;;;;;;;;;;17.49;30.49;95090.69;10351429;28;1529;-57
2022/04/20 13:49:12;;;;;;;;;;;;;;;17.49;30.65;95088.06;10359322;28;1487;-56
2022/04/20 13:54:12;;;;;;;;;;;;;;;17.50;30.57;95087.00;10352560;28;1975;-58
2022/04/20 13:59:13;;;;;;;;;;;;;;;17.51;30.70;95087.78;10348384;28;1451;-56
2022/04/20 14:04:13;;;;;;;;;;;;;;;17.49;30.71;95085.44;10346010;28;1455;-57
2022/04/20 14:09:14;;;;;;;;;;;;;;;17.50;30.68;95094.84;10349525;28;1488;-55
2022/04/20 14:14:15;;;;;;;;;;;;;;;17.50;30.60;95105.34;10369237;23;1979;-48
2022/04/20 14:19:15;;;;;;;;;;;;;;;17.50;30.63;95100.09;10360419;28;1545;-53
2022/04/20 14:24:15;;;;;;;;;;;;;;;17.49;30.43;95090.69;10362453;28;1386;-53
2022/04/20 14:34:55;;;;;;;;;;;;;;;17.49;30.68;95089.84;10264752;28;1970;-50
2022/04/20 14:39:57;;;;;;;;;;;;;;;17.50;30.83;95081.75;10339978;28;1486;-54
2022/04/20 14:45:01;;;;;;;;;;;;;;;17.48;30.70;95078.59;10358411;28;1466;-53
2022/04/20 14:50:02;;;;;;;;;;;;;;;17.47;30.62;95092.75;10358177;28;1463;-53
2022/04/20 14:55:04;;;;;;;;;;;;;;;17.47;30.63;95082.28;10360145;28;1903;-53
2022/04/20 15:00:04;;;;;;;;;;;;;;;17.47;30.59;95082.28;10356809;28;1571;-52
2022/04/20 15:05:05;;;;;;;;;;;;;;;17.47;30.48;95077.03;10360426;28;1403;-54
2022/04/20 15:10:05;;;;;;;;;;;;;;;17.46;30.63;95072.84;10358314;28;1462;-51
2022/04/20 15:15:06;;;;;;;;;;;;;;;17.46;30.55;95059.72;10359951;28;1961;-49
2022/04/20 15:20:06;;;;;;;;;;;;;;;17.45;30.47;95068.66;10356440;28;1518;-50
2022/04/20 15:25:07;;;;;;;;;;;;;;;17.46;30.43;95064.19;10359100;28;1741;-51
2022/04/20 15:30:07;;;;;;;;;;;;;;;17.44;30.58;95056.59;10354864;28;1423;-49
2022/04/20 15:35:09;;;;;;;;;;;;;;;17.46;30.58;95058.94;10359666;28;1910;-53
2022/04/20 15:40:10;;;;;;;;;;;;;;;17.43;30.50;95057.66;10356200;28;1462;-51
2022/04/20 15:45:10;;;;;;;;;;;;;;;17.45;30.47;95068.66;10356672;28;1609;-50
2022/04/20 15:50:10;;;;;;;;;;;;;;;17.44;30.57;95064.47;10356398;28;1466;-50
2022/04/20 16:00:32;;;;;;;;;;;;;;;17.42;30.51;95069.19;10361898;28;1465;-52
2022/04/20 16:05:33;;;;;;;;;;;;;;;17.43;30.46;95064.72;10366319;28;1458;-53
2022/04/20 16:10:33;;;;;;;;;;;;;;;17.43;30.54;95062.13;10367592;28;1522;-52
2022/04/20 16:15:35;;;;;;;;;;;;;;;17.40;30.58;95063.44;10366982;28;1950;-49
2022/04/20 16:20:35;;;;;;;;;;;;;;;17.40;30.46;95066.06;10363410;28;2646;-48
2022/04/20 16:25:35;;;;;;;;;;;;;;;17.40;30.40;95075.75;10366187;28;1447;-53
2022/04/20 16:30:37;;;;;;;;;;;;;;;17.40;30.45;95068.66;10359809;28;1473;-52
2022/04/20 16:35:39;;;;;;;;;;;;;;;17.39;30.44;95071.56;10360522;28;1927;-48
2022/04/20 16:40:39;;;;;;;;;;;;;;;17.40;30.45;95084.38;10362646;28;1482;-48
2022/04/20 16:45:39;;;;;;;;;;;;;;;17.38;30.47;95089.13;10365483;28;1413;-52
2022/04/20 16:50:40;;;;;;;;;;;;;;;17.38;30.48;95088.31;10362294;28;1543;-49
2022/04/20 16:55:40;;;;;;;;;;;;;;;17.37;30.41;95087.53;10364207;28;1969;-49
2022/04/20 17:00:44;;;;;;;;;;;;;;;17.37;30.41;95092.78;10359477;28;1462;-49
2022/04/20 17:05:44;;;;;;;;;;;;;;;17.37;30.38;95092.00;10363677;28;2539;-51
2022/04/20 17:10:44;;;;;;;;;;;;;;;17.36;30.29;95096.47;10363726;28;1553;-53
2022/04/20 17:15:46;;;;;;;;;;;;;;;17.35;30.18;95097.50;10346373;28;2029;-53
2022/04/20 17:31:25;;;;;;;;;;;;;;;17.35;30.42;95088.88;10359155;28;1465;-49
2022/04/20 17:36:43;;;;;;;;;;;;;;;17.34;30.27;95101.19;10362166;28;1918;-53
2022/04/20 17:41:45;;;;;;;;;;;;;;;17.35;30.33;95094.13;10359481;28;1523;-53
2022/04/20 17:46:47;;;;;;;;;;;;;;;17.34;30.24;95089.91;10361966;28;1466;-53
2022/04/20 17:51:49;;;;;;;;;;;;;;;17.32;30.29;95090.19;10362738;28;1398;-55
2022/04/20 17:56:50;;;;;;;;;;;;;;;17.32;30.29;95103.28;10358706;28;1910;-53
2022/04/20 18:01:50;;;;;;;;;;;;;;;17.33;30.27;95107.47;10361041;28;1493;-54
2022/04/20 18:06:51;;;;;;;;;;;;;;;17.32;30.27;95111.16;10361563;28;1494;-55
2022/04/20 18:11:53;;;;;;;;;;;;;;;17.30;30.29;95108.00;10361623;28;1476;-54
2022/04/20 18:16:53;;;;;;;;;;;;;;;17.32;30.16;95110.34;10359938;28;1981;-50
2022/04/20 18:21:54;;;;;;;;;;;;;;;17.30;30.14;95112.47;10364264;28;1418;-48
2022/04/20 18:26:55;;;;;;;;;;;;;;;17.31;30.17;95114.81;10361476;28;1537;-52
2022/04/20 18:31:55;;;;;;;;;;;;;;;17.31;30.19;95125.28;10355998;28;1537;-49
2022/04/20 18:36:56;;;;;;;;;;;;;;;17.31;30.21;95119.28;10361186;28;2016;-51
2022/04/20 18:41:56;;;;;;;;;;;;;;;17.30;30.29;95123.72;10362518;28;1461;-54
2022/04/20 18:46:57;;;;;;;;;;;;;;;17.29;30.28;95127.38;10363606;28;1438;-54
2022/04/20 18:51:57;;;;;;;;;;;;;;;17.29;30.26;95121.38;10360516;28;1453;-51
2022/04/20 19:02:17;;;;;;;;;;;;;;;17.28;30.29;95122.41;10359116;28;1361;-54
2022/04/20 19:07:19;;;;;;;;;;;;;;;17.28;30.22;95123.22;10362662;28;1266;-49
2022/04/20 19:12:20;;;;;;;;;;;;;;;17.29;30.20;95127.38;10360200;28;1452;-50
2022/04/20 19:17:21;;;;;;;;;;;;;;;17.29;30.43;95127.38;10364017;28;1914;-54
2022/04/20 19:22:21;;;;;;;;;;;;;;;17.29;30.35;95126.63;10361071;28;1490;-51
2022/04/20 19:27:23;;;;;;;;;;;;;;;17.27;30.20;95128.72;10362158;28;1336;-54
2022/04/20 19:32:23;;;;;;;;;;;;;;;17.28;30.23;95131.06;10361756;28;1347;-54
2022/04/20 19:37:24;;;;;;;;;;;;;;;17.28;30.19;95122.41;10361730;28;1944;-54
2022/04/20 19:42:25;;;;;;;;;;;;;;;17.27;30.33;95129.50;10360728;28;1651;-52
2022/04/20 19:47:26;;;;;;;;;;;;;;;17.28;30.20;95122.41;10346782;28;1513;-54
2022/04/20 19:52:26;;;;;;;;;;;;;;;17.28;30.27;95117.19;10358724;28;1519;-50
2022/04/20 19:57:27;;;;;;;;;;;;;;;17.27;30.27;95113.00;10344924;28;1906;-51
2022/04/20 20:02:27;;;;;;;;;;;;;;;17.28;30.26;95101.47;10359925;28;1384;-49
2022/04/20 20:07:29;;;;;;;;;;;;;;;17.26;30.28;95099.13;10358171;28;1345;-51
2022/04/20 20:12:30;;;;;;;;;;;;;;;17.26;30.19;95106.19;10358605;28;1785;-50
2022/04/20 20:17:30;;;;;;;;;;;;;;;17.26;30.26;95101.75;10387801;23;1887;-56
2022/04/20 20:22:30;;;;;;;;;;;;;;;17.26;30.28;95099.13;10361942;28;1267;-57
2022/04/20 20:32:50;;;;;;;;;;;;;;;17.28;30.21;95109.31;10329120;28;1401;-58
2022/04/20 20:37:51;;;;;;;;;;;;;;;17.26;30.30;95106.97;10321429;28;1967;-57
2022/04/20 20:42:51;;;;;;;;;;;;;;;17.26;30.29;95104.38;10335915;28;1109;-53
2022/04/20 20:47:51;;;;;;;;;;;;;;;17.25;30.20;95099.41;10334099;28;1358;-54
2022/04/20 20:52:53;;;;;;;;;;;;;;;17.26;30.22;95091.25;10332121;28;1185;-56
2022/04/20 20:57:54;;;;;;;;;;;;;;;17.25;30.25;95086.31;10315841;28;1883;-57
2022/04/20 21:02:54;;;;;;;;;;;;;;;17.26;30.18;95091.25;10322206;28;1393;-56
2022/04/20 21:07:54;;;;;;;;;;;;;;;17.25;30.16;95081.81;10313655;28;1315;-56
2022/04/20 21:12:55;;;;;;;;;;;;;;;17.25;30.23;95088.91;10336598;28;1551;-56
2022/04/20 21:17:56;;;;;;;;;;;;;;;17.25;30.14;95079.19;10329765;28;2226;-55
2022/04/20 21:22:57;;;;;;;;;;;;;;;17.25;30.13;95081.06;10314677;28;1294;-56
2022/04/20 21:27:58;;;;;;;;;;;;;;;17.25;30.14;95086.31;10312886;28;1341;-55
2022/04/20 21:33:01;;;;;;;;;;;;;;;17.25;30.19;95083.69;10323086;28;1836;-53
2022/04/20 21:38:03;;;;;;;;;;;;;;;17.24;30.20;95088.13;10324726;28;2009;-56
2022/04/20 21:43:04;;;;;;;;;;;;;;;17.24;30.15;95088.13;10318120;28;2156;-56
2022/04/20 21:48:05;;;;;;;;;;;;;;;17.25;30.10;95086.31;10335288;28;1357;-58
2022/04/20 21:53:06;;;;;;;;;;;;;;;17.24;30.14;95089.97;10327945;28;1441;-57
2022/04/20 21:58:07;;;;;;;;;;;;;;;17.25;30.19;95100.16;10316280;28;2236;-58
2022/04/20 22:08:27;;;;;;;;;;;;;;;17.24;29.94;95103.84;10311105;28;1424;-56
2022/04/20 22:13:27;;;;;;;;;;;;;;;17.24;30.21;95108.28;10299920;28;1907;-58
2022/04/20 22:18:28;;;;;;;;;;;;;;;17.24;30.17;95103.06;10311805;28;1377;-57
2022/04/20 22:23:28;;;;;;;;;;;;;;;17.23;30.09;95097.03;10313008;28;1692;-58
2022/04/20 22:28:28;;;;;;;;;;;;;;;17.23;30.21;95091.03;10301517;28;1404;-57
2022/04/20 22:33:29;;;;;;;;;;;;;;;17.21;30.21;95093.88;10333291;28;1973;-57
2022/04/20 22:38:29;;;;;;;;;;;;;;;17.23;29.99;95081.31;10308701;28;1526;-55
2022/04/20 22:43:35;;;;;;;;;;;;;;;17.21;30.16;95083.41;10334681;28;1184;-57
2022/04/20 22:48:35;;;;;;;;;;;;;;;17.22;30.12;95079.75;10310684;28;1865;-57
2022/04/20 22:53:36;;;;;;;;;;;;;;;17.21;30.18;95072.94;10310453;28;1965;-57
2022/04/20 22:58:36;;;;;;;;;;;;;;;17.23;30.03;95073.44;10311692;28;1463;-56
2022/04/20 23:03:36;;;;;;;;;;;;;;;17.21;30.13;95067.69;10333701;28;1432;-57
2022/04/20 23:08:37;;;;;;;;;;;;;;;17.23;30.02;95070.06;10311874;28;1362;-58
2022/04/20 23:13:38;;;;;;;;;;;;;;;17.21;30.08;95062.47;10310037;28;1907;-57
2022/04/20 23:18:39;;;;;;;;;;;;;;;17.21;30.17;95056.47;10313756;28;1424;-56
2022/04/20 23:23:39;;;;;;;;;;;;;;;17.21;30.15;95062.47;10309683;28;1440;-57
2022/04/20 23:28:41;;;;;;;;;;;;;;;17.20;30.06;95060.91;10316230;28;1756;-53
2022/04/20 23:33:41;;;;;;;;;;;;;;;17.20;30.09;95060.13;10323916;28;1967;-57
2022/04/20 23:38:42;;;;;;;;;;;;;;;17.21;29.99;95054.59;10324054;28;1327;-55
2022/04/20 23:43:42;;;;;;;;;;;;;;;17.20;30.10;95044.41;10325424;28;1358;-58
2022/04/20 23:48:43;;;;;;;;;;;;;;;17.20;30.04;95034.72;10324599;28;1307;-59
2022/04/20 23:53:43;;;;;;;;;;;;;;;17.19;30.15;95033.13;10306335;28;1914;-57
2022/04/20 23:58:44;;;;;;;;;;;;;;;17.19;30.16;95027.91;10305656;28;1339;-56
